Time;durP1;ratioP1;P1;durP2;ratioP2;P2;SDS_P1;SDS_P2;PMS_P1;PMS_P2;Temp;Humidity;BMP_temperature;BMP_pressure;BME280_temperature;BME280_humidity;BME280_pressure;Samples;Min_cycle;Max_cycle;Signal;HPM_P1;HPM_P2
2022/09/21 00:01:17;;;;;;;5.07;3.47;;;;;;;;;;5082288;28;20200;-69
2022/09/21 00:03:43;;;;;;;4.80;3.97;;;;;;;;;;5082237;28;20219;-69
2022/09/21 00:06:11;;;;;;;7.28;4.20;;;;;;;;;;5082372;28;20216;-69
2022/09/21 00:08:37;;;;;;;4.43;3.58;;;;;;;;;;5082366;28;20196;-69
2022/09/21 00:11:05;;;;;;;3.80;3.50;;;;;;;;;;5081882;28;20429;-69
2022/09/21 00:13:32;;;;;;;4.00;3.70;;;;;;;;;;5082434;28;20376;-69
2022/09/21 00:15:58;;;;;;;4.00;3.60;;;;;;;;;;5082083;28;20196;-69
2022/09/21 00:18:25;;;;;;;6.80;3.65;;;;;;;;;;5082503;28;20511;-69
2022/09/21 00:20:52;;;;;;;3.60;3.30;;;;;;;;;;5082230;28;20204;-69
2022/09/21 00:23:18;;;;;;;4.70;3.90;;;;;;;;;;5082021;28;20227;-69
2022/09/21 00:25:44;;;;;;;4.72;3.72;;;;;;;;;;5081835;28;20204;-69
2022/09/21 00:28:12;;;;;;;4.65;4.25;;;;;;;;;;5082141;28;20274;-69
2022/09/21 00:30:38;;;;;;;4.88;4.32;;;;;;;;;;5082092;28;20225;-69
2022/09/21 00:33:05;;;;;;;5.82;4.05;;;;;;;;;;5082040;28;20240;-69
2022/09/21 00:35:32;;;;;;;6.93;4.70;;;;;;;;;;5082117;28;20204;-69
2022/09/21 00:38:00;;;;;;;6.25;4.65;;;;;;;;;;5082010;28;20200;-68
2022/09/21 00:40:35;;;;;;;5.90;4.30;;;;;;;;;;5081850;28;20200;-68
2022/09/21 00:43:13;;;;;;;4.63;4.18;;;;;;;;;;5081465;28;20195;-68
2022/09/21 00:45:39;;;;;;;5.25;4.20;;;;;;;;;;5082000;28;20196;-68
2022/09/21 00:48:05;;;;;;;4.70;4.15;;;;;;;;;;5081996;28;20253;-69
2022/09/21 00:50:32;;;;;;;5.53;4.40;;;;;;;;;;5081889;28;20431;-68
2022/09/21 00:52:58;;;;;;;4.88;4.43;;;;;;;;;;5081604;28;20527;-67
2022/09/21 00:55:25;;;;;;;4.55;4.15;;;;;;;;;;5081627;28;20500;-67
2022/09/21 00:57:54;;;;;;;4.28;3.88;;;;;;;;;;5081900;28;20211;-67
2022/09/21 01:00:22;;;;;;;5.28;4.07;;;;;;;;;;5081706;28;20543;-67
2022/09/21 01:02:49;;;;;;;5.30;4.20;;;;;;;;;;5081702;28;20422;-67
2022/09/21 01:05:15;;;;;;;5.57;4.50;;;;;;;;;;5081675;28;20228;-68
2022/09/21 01:07:43;;;;;;;5.68;4.13;;;;;;;;;;5081632;28;20409;-68
2022/09/21 01:10:10;;;;;;;5.93;4.35;;;;;;;;;;5081407;28;20260;-67
2022/09/21 01:12:45;;;;;;;6.43;4.13;;;;;;;;;;5081502;28;20197;-67
2022/09/21 01:15:16;;;;;;;5.78;4.22;;;;;;;;;;5081886;28;20408;-67
2022/09/21 01:17:46;;;;;;;7.05;4.47;;;;;;;;;;5081605;28;20200;-67
2022/09/21 01:20:29;;;;;;;6.65;5.05;;;;;;;;;;5081563;28;20305;-67
2022/09/21 01:23:02;;;;;;;4.32;3.92;;;;;;;;;;5081550;28;20283;-67
2022/09/21 01:25:32;;;;;;;4.93;4.53;;;;;;;;;;5085073;28;20239;-67
2022/09/21 01:28:14;;;;;;;4.70;4.30;;;;;;;;;;5085311;28;20358;-67
2022/09/21 01:30:43;;;;;;;3.97;3.58;;;;;;;;;;5085509;28;20276;-67
2022/09/21 01:33:12;;;;;;;4.78;4.20;;;;;;;;;;5084981;28;20222;-67
2022/09/21 01:35:41;;;;;;;5.55;4.32;;;;;;;;;;5084941;28;20196;-69
2022/09/21 01:38:08;;;;;;;5.45;4.20;;;;;;;;;;5085092;28;20197;-69
2022/09/21 01:40:37;;;;;;;4.53;4.13;;;;;;;;;;5084689;28;20193;-69
2022/09/21 01:43:05;;;;;;;4.15;3.75;;;;;;;;;;5084957;28;20394;-69
2022/09/21 01:45:32;;;;;;;6.32;4.60;;;;;;;;;;5084910;28;20567;-69
2022/09/21 01:48:00;;;;;;;5.68;4.22;;;;;;;;;;5085005;28;20200;-69
2022/09/21 01:50:29;;;;;;;4.72;4.22;;;;;;;;;;5084779;28;20204;-69
2022/09/21 01:52:58;;;;;;;5.43;4.60;;;;;;;;;;5084519;28;20499;-69
2022/09/21 01:55:26;;;;;;;4.90;4.47;;;;;;;;;;5084874;28;20203;-69
2022/09/21 01:57:55;;;;;;;5.90;4.65;;;;;;;;;;5084526;28;20200;-69
2022/09/21 02:00:21;;;;;;;7.95;4.30;;;;;;;;;;5084626;28;20265;-69
2022/09/21 02:02:50;;;;;;;5.13;4.55;;;;;;;;;;5084348;28;20203;-69
2022/09/21 02:05:18;;;;;;;5.25;4.75;;;;;;;;;;5084344;28;20366;-69
2022/09/21 02:07:45;;;;;;;6.53;4.55;;;;;;;;;;5084329;28;20457;-69
2022/09/21 02:10:15;;;;;;;7.03;4.63;;;;;;;;;;5084560;28;20200;-69
2022/09/21 02:12:42;;;;;;;10.30;5.05;;;;;;;;;;5084487;28;20405;-68
2022/09/21 02:15:09;;;;;;;4.75;4.35;;;;;;;;;;5084404;28;20391;-67
2022/09/21 02:17:38;;;;;;;5.65;5.15;;;;;;;;;;5084245;28;20196;-67
2022/09/21 02:20:09;;;;;;;6.25;4.80;;;;;;;;;;5084130;28;20204;-67
2022/09/21 02:22:40;;;;;;;5.43;4.90;;;;;;;;;;5084133;28;20211;-67
2022/09/21 02:25:09;;;;;;;4.93;4.53;;;;;;;;;;5084214;28;20223;-67
2022/09/21 02:27:38;;;;;;;5.03;4.55;;;;;;;;;;5084118;28;20204;-67
2022/09/21 02:30:07;;;;;;;5.03;4.65;;;;;;;;;;5084104;28;20200;-67
2022/09/21 02:32:37;;;;;;;5.20;4.70;;;;;;;;;;5083646;28;20488;-67
2022/09/21 02:35:08;;;;;;;9.73;5.30;;;;;;;;;;5083700;28;20193;-67
2022/09/21 02:37:35;;;;;;;7.57;4.88;;;;;;;;;;5084322;28;20236;-67
2022/09/21 02:40:08;;;;;;;5.30;4.78;;;;;;;;;;5083790;28;20204;-67
2022/09/21 02:42:37;;;;;;;4.90;4.43;;;;;;;;;;5083626;28;20698;-67
2022/09/21 02:45:06;;;;;;;6.95;4.53;;;;;;;;;;5083642;28;20291;-67
2022/09/21 02:47:35;;;;;;;5.95;4.53;;;;;;;;;;5084268;28;20200;-67
2022/09/21 02:50:04;;;;;;;5.35;4.80;;;;;;;;;;5083771;28;20387;-67
2022/09/21 02:52:31;;;;;;;5.22;4.60;;;;;;;;;;5083497;28;20202;-67
2022/09/21 02:54:58;;;;;;;5.68;4.90;;;;;;;;;;5083481;28;20200;-69
2022/09/21 02:57:26;;;;;;;6.03;4.47;;;;;;;;;;5083550;28;20196;-68
2022/09/21 02:59:52;;;;;;;6.25;4.85;;;;;;;;;;5083381;28;20197;-67
2022/09/21 03:02:19;;;;;;;6.20;4.43;;;;;;;;;;5083424;28;20508;-67
2022/09/21 03:04:47;;;;;;;4.97;4.47;;;;;;;;;;5083204;28;20224;-67
2022/09/21 03:07:13;;;;;;;6.32;5.15;;;;;;;;;;5083555;28;20504;-67
2022/09/21 03:09:40;;;;;;;10.70;5.05;;;;;;;;;;5083165;28;20196;-66
2022/09/21 03:12:06;;;;;;;5.82;4.38;;;;;;;;;;5083071;28;20211;-66
2022/09/21 03:14:33;;;;;;;6.75;4.85;;;;;;;;;;5082972;28;20204;-66
2022/09/21 03:17:00;;;;;;;6.05;5.07;;;;;;;;;;5083173;28;20196;-66
2022/09/21 03:19:27;;;;;;;8.90;4.90;;;;;;;;;;5083063;28;20242;-66
2022/09/21 03:21:54;;;;;;;6.18;4.50;;;;;;;;;;5082909;28;20204;-69
2022/09/21 03:27:00;;;;;;;5.63;4.53;;;;;;;;;;5082618;28;20522;-68
2022/09/21 03:29:26;;;;;;;4.30;3.97;;;;;;;;;;5083172;28;20488;-69
2022/09/21 03:31:54;;;;;;;6.03;4.97;;;;;;;;;;5082860;28;20196;-68
2022/09/21 03:34:21;;;;;;;6.88;4.35;;;;;;;;;;5082576;28;20200;-66
2022/09/21 03:36:47;;;;;;;6.75;4.93;;;;;;;;;;5082788;28;20200;-66
2022/09/21 03:39:14;;;;;;;5.25;4.85;;;;;;;;;;5082495;28;20204;-66
2022/09/21 03:41:40;;;;;;;8.02;4.15;;;;;;;;;;5082975;28;20347;-66
2022/09/21 03:44:06;;;;;;;6.18;4.80;;;;;;;;;;5082403;28;20203;-66
2022/09/21 03:46:34;;;;;;;6.10;4.40;;;;;;;;;;5082122;28;20204;-66
2022/09/21 03:49:02;;;;;;;6.18;4.90;;;;;;;;;;5082590;28;20202;-66
2022/09/21 03:51:29;;;;;;;7.90;5.00;;;;;;;;;;5082372;28;20208;-66
2022/09/21 03:53:56;;;;;;;5.13;4.55;;;;;;;;;;5082075;28;20203;-66
2022/09/21 03:56:22;;;;;;;6.10;4.68;;;;;;;;;;5082295;28;20192;-66
2022/09/21 03:58:48;;;;;;;5.82;4.95;;;;;;;;;;5082363;28;20196;-66
2022/09/21 04:01:15;;;;;;;4.95;4.55;;;;;;;;;;5082426;28;20196;-66
2022/09/21 04:03:41;;;;;;;5.88;4.55;;;;;;;;;;5082127;28;20219;-67
2022/09/21 04:06:10;;;;;;;5.28;4.60;;;;;;;;;;5082282;28;20224;-67
2022/09/21 04:08:36;;;;;;;5.75;5.13;;;;;;;;;;5082118;28;20512;-66
2022/09/21 04:11:08;;;;;;;6.25;5.05;;;;;;;;;;5082308;28;20196;-66
2022/09/21 04:13:35;;;;;;;4.95;4.45;;;;;;;;;;5082164;28;20197;-66
2022/09/21 04:16:02;;;;;;;6.47;4.60;;;;;;;;;;5082285;28;20220;-66
2022/09/21 04:18:28;;;;;;;5.32;4.72;;;;;;;;;;5082223;28;20529;-66
2022/09/21 04:20:54;;;;;;;6.90;4.93;;;;;;;;;;5081947;28;20496;-66
2022/09/21 04:23:22;;;;;;;6.32;4.80;;;;;;;;;;5082086;28;20500;-66
2022/09/21 04:25:50;;;;;;;6.95;4.90;;;;;;;;;;5081994;28;20216;-66
2022/09/21 04:28:16;;;;;;;5.25;4.75;;;;;;;;;;5082082;28;20555;-66
2022/09/21 04:30:42;;;;;;;7.20;4.82;;;;;;;;;;5082019;28;20197;-66
2022/09/21 04:33:08;;;;;;;7.00;5.25;;;;;;;;;;5081869;28;20200;-66
2022/09/21 04:35:35;;;;;;;7.65;5.30;;;;;;;;;;5081792;28;20192;-66
2022/09/21 04:38:01;;;;;;;7.38;5.40;;;;;;;;;;5082199;28;20200;-66
2022/09/21 04:40:29;;;;;;;10.75;5.47;;;;;;;;;;5081996;28;20504;-66
2022/09/21 04:42:56;;;;;;;5.75;5.15;;;;;;;;;;5081781;28;20212;-66
2022/09/21 04:45:23;;;;;;;5.55;5.05;;;;;;;;;;5081624;28;20266;-66
2022/09/21 04:47:49;;;;;;;7.75;5.22;;;;;;;;;;5081725;28;20382;-67
2022/09/21 04:50:16;;;;;;;9.68;5.05;;;;;;;;;;5081668;28;20404;-67
2022/09/21 04:52:42;;;;;;;6.65;4.85;;;;;;;;;;5081783;28;20373;-67
2022/09/21 04:55:09;;;;;;;5.78;5.28;;;;;;;;;;5081851;28;20516;-67
2022/09/21 04:57:36;;;;;;;5.53;5.03;;;;;;;;;;5082458;28;20204;-67
2022/09/21 05:00:03;;;;;;;5.82;5.28;;;;;;;;;;5085684;28;20537;-67
2022/09/21 05:02:29;;;;;;;9.48;5.10;;;;;;;;;;5085343;28;20271;-67
2022/09/21 05:04:55;;;;;;;6.72;5.68;;;;;;;;;;5085671;28;20224;-67
2022/09/21 05:07:22;;;;;;;7.18;6.13;;;;;;;;;;5084924;28;20196;-68
2022/09/21 05:10:02;;;;;;;9.15;6.35;;;;;;;;;;5085657;28;20202;-67
2022/09/21 05:12:28;;;;;;;8.45;6.05;;;;;;;;;;5085410;28;20192;-67
2022/09/21 05:14:56;;;;;;;8.90;5.38;;;;;;;;;;5085396;28;20288;-67
2022/09/21 05:17:22;;;;;;;7.20;5.47;;;;;;;;;;5085234;28;20223;-67
2022/09/21 05:19:49;;;;;;;9.93;5.75;;;;;;;;;;5085695;28;20200;-67
2022/09/21 05:22:15;;;;;;;7.43;5.07;;;;;;;;;;5085340;28;20200;-67
2022/09/21 05:24:41;;;;;;;8.10;5.70;;;;;;;;;;5085158;28;20204;-67
2022/09/21 05:27:07;;;;;;;8.48;6.13;;;;;;;;;;5085057;28;20208;-68
2022/09/21 05:29:34;;;;;;;9.20;6.72;;;;;;;;;;5085181;28;20203;-68
2022/09/21 05:32:05;;;;;;;12.80;6.30;;;;;;;;;;5085353;28;20537;-68
2022/09/21 05:34:36;;;;;;;6.30;5.70;;;;;;;;;;5084911;28;20197;-67
2022/09/21 05:37:08;;;;;;;7.93;6.38;;;;;;;;;;5085385;28;20268;-69
2022/09/21 05:39:35;;;;;;;7.72;6.65;;;;;;;;;;5085226;28;20385;-69
2022/09/21 05:42:01;;;;;;;8.75;6.35;;;;;;;;;;5085186;28;20200;-69
2022/09/21 05:44:28;;;;;;;10.07;6.03;;;;;;;;;;5085033;28;20204;-69
2022/09/21 05:46:58;;;;;;;10.65;6.28;;;;;;;;;;5085137;28;20223;-69
2022/09/21 05:49:31;;;;;;;8.75;5.95;;;;;;;;;;5085019;28;20391;-69
2022/09/21 05:52:00;;;;;;;7.50;6.22;;;;;;;;;;5085185;28;20202;-70
2022/09/21 05:54:32;;;;;;;7.90;5.70;;;;;;;;;;5084847;28;20200;-69
2022/09/21 05:57:01;;;;;;;11.88;5.63;;;;;;;;;;5084928;28;20196;-69
2022/09/21 05:59:32;;;;;;;7.72;6.00;;;;;;;;;;5084894;28;20196;-69
2022/09/21 06:02:02;;;;;;;6.18;5.53;;;;;;;;;;5084794;28;20196;-69
2022/09/21 06:04:30;;;;;;;7.30;5.80;;;;;;;;;;5084490;28;20570;-69
2022/09/21 06:06:57;;;;;;;8.95;5.88;;;;;;;;;;5084521;28;20228;-69
2022/09/21 06:09:24;;;;;;;6.05;5.50;;;;;;;;;;5083779;28;20197;-69
2022/09/21 06:11:51;;;;;;;7.57;4.72;;;;;;;;;;5084582;28;20207;-69
2022/09/21 06:14:23;;;;;;;9.43;5.85;;;;;;;;;;5084439;28;20267;-69
2022/09/21 06:16:49;;;;;;;16.38;5.85;;;;;;;;;;5078063;28;20426;-63
2022/09/21 06:19:15;;;;;;;16.60;6.18;;;;;;;;;;5068914;28;20508;-63
2022/09/21 06:21:43;;;;;;;15.18;5.38;;;;;;;;;;5069183;28;20212;-63
2022/09/21 06:24:10;;;;;;;11.13;5.00;;;;;;;;;;5078035;28;20204;-64
2022/09/21 06:26:36;;;;;;;7.55;5.15;;;;;;;;;;5078456;28;20266;-64
2022/09/21 06:29:03;;;;;;;10.70;4.88;;;;;;;;;;5077674;28;20215;-64
2022/09/21 06:31:30;;;;;;;5.85;4.47;;;;;;;;;;5076608;28;20544;-64
2022/09/21 06:33:56;;;;;;;7.20;4.30;;;;;;;;;;5076537;28;20204;-64
2022/09/21 06:36:22;;;;;;;7.68;4.97;;;;;;;;;;5074323;28;20211;-64
2022/09/21 06:38:50;;;;;;;8.45;5.40;;;;;;;;;;5076204;28;20582;-65
2022/09/21 06:41:16;;;;;;;10.27;5.47;;;;;;;;;;5076569;28;20219;-65
2022/09/21 06:43:42;;;;;;;7.88;5.03;;;;;;;;;;5076374;28;20237;-65
2022/09/21 06:46:09;;;;;;;6.13;4.93;;;;;;;;;;5076742;28;20236;-65
2022/09/21 06:48:35;;;;;;;9.35;5.53;;;;;;;;;;5076297;28;20220;-65
2022/09/21 06:51:02;;;;;;;8.00;4.95;;;;;;;;;;5076621;28;20208;-64
2022/09/21 06:53:29;;;;;;;9.73;5.60;;;;;;;;;;5076341;28;20524;-64
2022/09/21 06:56:01;;;;;;;6.82;5.50;;;;;;;;;;5076501;28;20209;-64
2022/09/21 06:58:27;;;;;;;5.30;4.78;;;;;;;;;;5076035;28;20208;-65
2022/09/21 07:00:54;;;;;;;10.60;4.75;;;;;;;;;;5076370;28;20258;-64
2022/09/21 07:03:21;;;;;;;7.57;5.28;;;;;;;;;;5076221;28;20213;-64
2022/09/21 07:05:48;;;;;;;5.05;4.65;;;;;;;;;;5076162;28;20250;-64
2022/09/21 07:08:14;;;;;;;6.10;5.00;;;;;;;;;;5074682;28;20280;-65
2022/09/21 07:10:41;;;;;;;12.10;6.03;;;;;;;;;;5075655;28;20582;-65
2022/09/21 07:13:09;;;;;;;6.18;5.07;;;;;;;;;;5071808;28;20211;-64
2022/09/21 07:15:35;;;;;;;11.45;5.70;;;;;;;;;;5075530;28;20239;-64
2022/09/21 07:18:09;;;;;;;8.35;5.35;;;;;;;;;;5074774;28;20219;-64
2022/09/21 07:20:36;;;;;;;9.32;5.82;;;;;;;;;;5075102;28;20480;-64
2022/09/21 07:23:09;;;;;;;5.90;5.35;;;;;;;;;;5074505;28;20446;-64
2022/09/21 07:25:36;;;;;;;11.38;5.30;;;;;;;;;;5075097;28;20251;-64
2022/09/21 07:28:02;;;;;;;8.30;5.82;;;;;;;;;;5075332;28;20407;-64
2022/09/21 07:30:30;;;;;;;7.93;5.60;;;;;;;;;;5074595;28;20499;-64
2022/09/21 07:32:57;;;;;;;6.38;5.60;;;;;;;;;;5075375;28;20213;-63
2022/09/21 07:35:23;;;;;;;10.68;6.82;;;;;;;;;;5075235;28;20279;-65
2022/09/21 07:37:50;;;;;;;6.22;5.60;;;;;;;;;;5074407;28;20453;-64
2022/09/21 07:40:16;;;;;;;7.75;6.32;;;;;;;;;;5074687;28;20212;-64
2022/09/21 07:42:43;;;;;;;6.63;5.97;;;;;;;;;;5074760;28;20212;-63
2022/09/21 07:45:10;;;;;;;8.68;6.13;;;;;;;;;;5075434;28;20510;-63
2022/09/21 07:47:38;;;;;;;10.23;6.60;;;;;;;;;;5074629;28;20232;-63
2022/09/21 07:50:04;;;;;;;7.22;5.70;;;;;;;;;;5074756;28;20212;-66
2022/09/21 07:52:31;;;;;;;9.70;6.50;;;;;;;;;;5075218;28;20424;-66
2022/09/21 07:54:57;;;;;;;13.57;6.35;;;;;;;;;;5074900;28;20230;-66
2022/09/21 08:00:08;;;;;;;8.88;5.90;;;;;;;;;;5074206;28;20239;-63
2022/09/21 08:02:34;;;;;;;13.95;6.88;;;;;;;;;;5073476;28;20553;-64
2022/09/21 08:05:01;;;;;;;18.52;7.47;;;;;;;;;;5074076;28;20256;-63
2022/09/21 08:07:28;;;;;;;10.15;5.80;;;;;;;;;;5073587;28;20227;-65
2022/09/21 08:09:54;;;;;;;9.65;6.32;;;;;;;;;;5073552;28;20216;-64
2022/09/21 08:12:20;;;;;;;12.43;6.65;;;;;;;;;;5073781;28;20535;-64
2022/09/21 08:14:47;;;;;;;12.13;6.60;;;;;;;;;;5074879;28;20216;-65
2022/09/21 08:17:13;;;;;;;12.27;6.45;;;;;;;;;;5074739;28;20200;-66
2022/09/21 08:19:40;;;;;;;9.95;6.00;;;;;;;;;;5074908;28;20212;-67
2022/09/21 08:22:07;;;;;;;8.88;5.28;;;;;;;;;;5074775;28;20219;-65
2022/09/21 08:24:34;;;;;;;8.80;5.68;;;;;;;;;;5074327;28;20216;-64
2022/09/21 08:27:00;;;;;;;7.85;5.60;;;;;;;;;;5074393;28;20278;-64
2022/09/21 08:29:27;;;;;;;7.85;5.32;;;;;;;;;;5073965;28;20520;-64
2022/09/21 08:31:53;;;;;;;8.88;5.15;;;;;;;;;;5073395;28;20215;-64
2022/09/21 08:34:19;;;;;;;6.30;4.63;;;;;;;;;;5072803;28;20212;-64
2022/09/21 08:36:46;;;;;;;5.70;4.50;;;;;;;;;;5074526;28;20212;-64
2022/09/21 08:39:13;;;;;;;4.97;4.47;;;;;;;;;;5074126;28;20258;-65
2022/09/21 08:41:52;;;;;;;10.45;5.18;;;;;;;;;;5075517;28;20243;-64
2022/09/21 08:44:19;;;;;;;8.38;5.15;;;;;;;;;;5074385;28;20212;-65
2022/09/21 08:46:48;;;;;;;5.32;4.60;;;;;;;;;;5076581;28;20578;-64
2022/09/21 08:49:17;;;;;;;10.05;4.53;;;;;;;;;;5075538;28;20216;-64
2022/09/21 08:51:46;;;;;;;4.15;3.53;;;;;;;;;;5074362;28;20247;-63
2022/09/21 08:54:17;;;;;;;5.35;4.22;;;;;;;;;;5073783;28;20216;-63
2022/09/21 08:56:43;;;;;;;6.57;3.55;;;;;;;;;;5074397;28;20215;-63
2022/09/21 08:59:12;;;;;;;7.80;3.42;;;;;;;;;;5074041;28;20212;-64
2022/09/21 09:01:45;;;;;;;5.80;3.78;;;;;;;;;;5070789;28;20220;-63
2022/09/21 09:04:24;;;;;;;3.47;2.92;;;;;;;;;;5074071;28;20220;-63
2022/09/21 09:06:55;;;;;;;6.93;2.47;;;;;;;;;;5073748;28;20235;-63
2022/09/21 09:09:30;;;;;;;3.22;2.58;;;;;;;;;;5073590;28;20211;-63
2022/09/21 09:12:03;;;;;;;3.70;2.38;;;;;;;;;;5074058;28;20216;-64
2022/09/21 09:14:36;;;;;;;4.63;2.25;;;;;;;;;;5073931;28;20536;-64
2022/09/21 09:17:14;;;;;;;4.40;1.70;;;;;;;;;;5074284;28;20587;-64
2022/09/21 09:19:48;;;;;;;2.20;1.67;;;;;;;;;;5070513;28;20212;-64
2022/09/21 09:25:21;;;;;;;5.20;1.20;;;;;;;;;;5060290;28;20636;-65
2022/09/21 09:27:50;;;;;;;0.68;0.68;;;;;;;;;;5072090;28;20228;-63
2022/09/21 09:30:18;;;;;;;2.40;0.90;;;;;;;;;;5070961;28;20535;-63
2022/09/21 09:32:47;;;;;;;1.85;0.93;;;;;;;;;;5074145;28;20327;-63
2022/09/21 09:35:17;;;;;;;5.63;0.88;;;;;;;;;;5074676;28;20216;-63
2022/09/21 09:37:45;;;;;;;1.88;0.80;;;;;;;;;;5074488;28;20208;-64
2022/09/21 09:40:12;;;;;;;3.35;0.63;;;;;;;;;;5074479;28;20411;-63
2022/09/21 09:42:50;;;;;;;2.60;0.70;;;;;;;;;;5074641;28;20219;-63
2022/09/21 09:45:20;;;;;;;1.08;0.75;;;;;;;;;;5076114;28;20406;-63
2022/09/21 09:47:52;;;;;;;0.70;0.68;;;;;;;;;;5077728;28;20228;-63
2022/09/21 09:50:22;;;;;;;3.08;0.90;;;;;;;;;;5077405;28;20213;-64
2022/09/21 09:52:48;;;;;;;1.35;0.80;;;;;;;;;;5077979;28;20449;-64
2022/09/21 09:55:16;;;;;;;1.30;0.80;;;;;;;;;;5077480;28;20552;-64
2022/09/21 09:57:43;;;;;;;0.60;0.60;;;;;;;;;;5077853;28;20247;-64
2022/09/21 10:00:14;;;;;;;1.70;0.60;;;;;;;;;;5077807;28;20204;-64
2022/09/21 10:02:46;;;;;;;1.88;0.85;;;;;;;;;;5074175;28;20212;-64
2022/09/21 10:05:19;;;;;;;3.42;1.20;;;;;;;;;;5074708;28;20667;-64
2022/09/21 10:07:45;;;;;;;1.95;0.60;;;;;;;;;;5077210;28;20614;-64
2022/09/21 10:10:30;;;;;;;2.15;0.60;;;;;;;;;;5076124;28;20300;-65
2022/09/21 10:13:02;;;;;;;1.52;0.50;;;;;;;;;;5075645;28;20211;-64
2022/09/21 10:15:29;;;;;;;0.73;0.50;;;;;;;;;;5076257;28;20421;-65
2022/09/21 10:18:01;;;;;;;0.60;0.60;;;;;;;;;;5076379;28;20528;-65
2022/09/21 10:20:29;;;;;;;4.15;0.60;;;;;;;;;;5076221;28;20218;-65
2022/09/21 10:22:56;;;;;;;1.00;0.60;;;;;;;;;;5075728;28;20512;-65
2022/09/21 10:25:23;;;;;;;1.60;0.60;;;;;;;;;;5076397;28;20219;-64
2022/09/21 10:27:50;;;;;;;1.38;0.80;;;;;;;;;;5075983;28;20559;-64
2022/09/21 10:30:33;;;;;;;2.35;0.60;;;;;;;;;;5076759;28;20240;-65
2022/09/21 10:33:00;;;;;;;2.83;0.60;;;;;;;;;;5071743;28;20460;-64
2022/09/21 10:35:26;;;;;;;0.85;0.60;;;;;;;;;;5075784;28;20283;-64
2022/09/21 10:38:09;;;;;;;2.35;0.80;;;;;;;;;;5076041;28;20212;-64
2022/09/21 10:40:36;;;;;;;0.70;0.70;;;;;;;;;;5076175;28;20551;-64
2022/09/21 10:43:03;;;;;;;1.90;0.70;;;;;;;;;;5076241;28;20219;-64
2022/09/21 10:45:30;;;;;;;1.02;0.70;;;;;;;;;;5075626;28;20213;-64
2022/09/21 10:47:59;;;;;;;1.30;0.65;;;;;;;;;;5075691;28;20295;-64
2022/09/21 10:50:27;;;;;;;1.13;0.68;;;;;;;;;;5075591;28;20219;-64
2022/09/21 10:52:56;;;;;;;2.97;0.75;;;;;;;;;;5075600;28;20235;-64
2022/09/21 10:55:23;;;;;;;2.03;0.70;;;;;;;;;;5075825;28;20212;-64
2022/09/21 10:57:50;;;;;;;4.70;0.70;;;;;;;;;;5075126;28;20231;-64
2022/09/21 11:00:28;;;;;;;1.10;0.60;;;;;;;;;;5075151;28;20582;-63
2022/09/21 11:02:55;;;;;;;1.27;0.60;;;;;;;;;;5075682;28;20287;-64
2022/09/21 11:05:24;;;;;;;2.30;0.80;;;;;;;;;;5075111;28;20568;-64
2022/09/21 11:07:54;;;;;;;0.65;0.65;;;;;;;;;;5074684;28;20232;-64
2022/09/21 11:10:23;;;;;;;2.58;0.68;;;;;;;;;;5074936;28;20220;-64
2022/09/21 11:12:53;;;;;;;1.30;0.60;;;;;;;;;;5074662;28;20766;-64
2022/09/21 11:15:32;;;;;;;1.10;0.65;;;;;;;;;;5074932;28;20236;-64
2022/09/21 11:18:00;;;;;;;1.85;0.55;;;;;;;;;;5074856;28;20212;-64
2022/09/21 11:20:30;;;;;;;0.45;0.45;;;;;;;;;;5073899;28;20219;-64
2022/09/21 11:23:01;;;;;;;1.00;0.90;;;;;;;;;;5075348;28;20212;-64
2022/09/21 11:25:31;;;;;;;1.55;0.60;;;;;;;;;;5075322;28;20204;-64
2022/09/21 11:28:01;;;;;;;1.48;0.73;;;;;;;;;;5074232;28;20228;-65
2022/09/21 11:30:32;;;;;;;1.88;0.63;;;;;;;;;;5074696;28;20210;-65
2022/09/21 11:33:05;;;;;;;0.40;0.40;;;;;;;;;;5074010;28;20817;-64
2022/09/21 11:35:40;;;;;;;2.75;0.90;;;;;;;;;;5075687;28;20211;-65
2022/09/21 11:38:13;;;;;;;1.48;0.65;;;;;;;;;;5074880;28;20523;-65
2022/09/21 11:40:49;;;;;;;2.42;0.40;;;;;;;;;;5075551;28;20280;-64
2022/09/21 11:43:21;;;;;;;0.43;0.43;;;;;;;;;;5074739;28;20216;-63
2022/09/21 11:45:56;;;;;;;0.70;0.45;;;;;;;;;;5074732;28;20212;-64
2022/09/21 11:48:26;;;;;;;2.20;0.63;;;;;;;;;;5074241;28;20226;-64
2022/09/21 11:50:57;;;;;;;2.13;0.50;;;;;;;;;;5074390;28;20242;-63
2022/09/21 11:53:29;;;;;;;0.93;0.50;;;;;;;;;;5074001;28;20524;-63
2022/09/21 11:56:02;;;;;;;1.25;0.50;;;;;;;;;;5075109;28;20213;-63
2022/09/21 11:58:32;;;;;;;0.57;0.57;;;;;;;;;;5074155;28;20204;-64
2022/09/21 12:01:05;;;;;;;1.85;0.63;;;;;;;;;;5074737;28;20212;-64
2022/09/21 12:03:44;;;;;;;1.55;0.50;;;;;;;;;;5073821;28;20212;-64
2022/09/21 12:06:15;;;;;;;1.55;0.40;;;;;;;;;;5071710;28;20235;-64
2022/09/21 12:08:47;;;;;;;0.57;0.57;;;;;;;;;;5070290;28;20232;-64
2022/09/21 12:11:18;;;;;;;1.20;0.40;;;;;;;;;;5071605;28;20238;-63
2022/09/21 12:13:49;;;;;;;3.22;0.47;;;;;;;;;;5073930;28;20209;-63
2022/09/21 12:16:19;;;;;;;0.50;0.50;;;;;;;;;;5074995;28;20415;-63
2022/09/21 12:18:48;;;;;;;1.00;0.50;;;;;;;;;;5074022;28;20226;-63
2022/09/21 12:21:18;;;;;;;0.95;0.45;;;;;;;;;;5074120;28;20205;-63
2022/09/21 12:23:46;;;;;;;0.52;0.50;;;;;;;;;;5074293;28;20231;-63
2022/09/21 12:26:15;;;;;;;0.50;0.50;;;;;;;;;;5074489;28;20220;-64
2022/09/21 12:28:42;;;;;;;1.70;0.68;;;;;;;;;;5073901;28;20412;-64
2022/09/21 12:31:11;;;;;;;3.67;0.73;;;;;;;;;;5074682;28;20212;-64
2022/09/21 12:33:41;;;;;;;1.10;0.70;;;;;;;;;;5073810;28;20219;-64
2022/09/21 12:36:10;;;;;;;4.22;0.60;;;;;;;;;;5074605;28;20212;-65
2022/09/21 12:38:40;;;;;;;2.05;0.50;;;;;;;;;;5074067;28;20226;-64
2022/09/21 12:41:10;;;;;;;0.93;0.70;;;;;;;;;;5074570;28;20210;-64
2022/09/21 12:43:41;;;;;;;1.40;0.60;;;;;;;;;;5073800;28;20235;-65
2022/09/21 12:46:11;;;;;;;0.40;0.40;;;;;;;;;;5070364;28;20456;-64
2022/09/21 12:48:38;;;;;;;0.50;0.50;;;;;;;;;;5073495;28;20228;-63
2022/09/21 12:51:12;;;;;;;0.55;0.38;;;;;;;;;;5073718;28;20211;-64
2022/09/21 12:53:41;;;;;;;1.95;0.50;;;;;;;;;;5070312;28;20577;-65
2022/09/21 12:56:11;;;;;;;0.20;0.20;;;;;;;;;;5070130;28;20212;-64
2022/09/21 12:58:44;;;;;;;1.30;0.60;;;;;;;;;;5070198;28;20208;-64
2022/09/21 13:01:19;;;;;;;0.30;0.30;;;;;;;;;;5070761;28;20428;-64
2022/09/21 13:03:51;;;;;;;0.55;0.50;;;;;;;;;;5071205;28;20203;-64
2022/09/21 13:06:33;;;;;;;1.90;0.47;;;;;;;;;;5073705;28;20270;-64
2022/09/21 13:09:02;;;;;;;1.00;0.55;;;;;;;;;;5073720;28;20297;-64
2022/09/21 13:11:28;;;;;;;3.20;0.55;;;;;;;;;;5073686;28;20223;-64
2022/09/21 13:13:58;;;;;;;0.40;0.40;;;;;;;;;;5073273;28;20208;-64
2022/09/21 13:16:26;;;;;;;1.73;0.40;;;;;;;;;;5073689;28;20226;-65
2022/09/21 13:18:55;;;;;;;1.02;0.60;;;;;;;;;;5074029;28;20212;-64
2022/09/21 13:21:25;;;;;;;0.50;0.50;;;;;;;;;;5076643;28;20213;-64
2022/09/21 13:23:52;;;;;;;1.10;0.60;;;;;;;;;;5077371;28;20236;-64
2022/09/21 13:26:29;;;;;;;0.50;0.50;;;;;;;;;;5077059;28;20274;-64
2022/09/21 13:29:24;;;;;;;2.65;0.70;;;;;;;;;;5077109;28;20238;-64
2022/09/21 13:31:58;;;;;;;0.55;0.50;;;;;;;;;;5077040;28;20756;-64
2022/09/21 13:34:26;;;;;;;0.55;0.50;;;;;;;;;;5075522;28;20523;-64
2022/09/21 13:37:14;;;;;;;0.40;0.40;;;;;;;;;;5076808;28;20274;-65
2022/09/21 13:39:43;;;;;;;0.93;0.45;;;;;;;;;;5077405;28;20212;-64
2022/09/21 13:42:39;;;;;;;0.30;0.30;;;;;;;;;;5074605;28;20212;-64
2022/09/21 13:45:29;;;;;;;0.40;0.40;;;;;;;;;;5015440;28;20212;-64
2022/09/21 13:47:58;;;;;;;1.52;0.40;;;;;;;;;;5071671;28;20239;-65
2022/09/21 13:50:26;;;;;;;0.55;0.55;;;;;;;;;;5076523;28;20212;-64
2022/09/21 13:52:54;;;;;;;0.40;0.40;;;;;;;;;;5076391;28;20212;-64
2022/09/21 13:55:24;;;;;;;0.30;0.30;;;;;;;;;;5077105;28;20551;-64
2022/09/21 13:57:54;;;;;;;0.73;0.52;;;;;;;;;;5078418;28;20362;-64
2022/09/21 14:00:31;;;;;;;0.63;0.40;;;;;;;;;;5077768;28;20212;-65
2022/09/21 14:03:00;;;;;;;1.48;0.50;;;;;;;;;;5076736;28;20321;-64
2022/09/21 14:05:30;;;;;;;0.50;0.50;;;;;;;;;;5076566;28;20228;-64
2022/09/21 14:07:58;;;;;;;0.50;0.50;;;;;;;;;;5076004;28;20605;-64
2022/09/21 14:10:25;;;;;;;0.40;0.40;;;;;;;;;;5076526;28;20279;-64
2022/09/21 14:12:52;;;;;;;0.65;0.50;;;;;;;;;;5076414;28;20200;-64
2022/09/21 14:15:34;;;;;;;0.40;0.40;;;;;;;;;;5076358;28;20234;-63
2022/09/21 14:18:18;;;;;;;1.25;0.40;;;;;;;;;;5076851;28;20220;-64
2022/09/21 14:20:59;;;;;;;0.50;0.50;;;;;;;;;;5073262;28;20216;-64
2022/09/21 14:23:28;;;;;;;0.40;0.40;;;;;;;;;;5075948;28;20570;-65
2022/09/21 14:25:55;;;;;;;1.85;0.50;;;;;;;;;;5076082;28;20227;-64
2022/09/21 14:28:40;;;;;;;0.50;0.50;;;;;;;;;;5076072;28;20236;-64
2022/09/21 14:31:09;;;;;;;0.47;0.40;;;;;;;;;;5075478;28;20254;-64
2022/09/21 14:33:42;;;;;;;0.43;0.43;;;;;;;;;;5076317;28;20547;-64
2022/09/21 14:36:09;;;;;;;2.42;0.63;;;;;;;;;;5073075;28;20392;-64
2022/09/21 14:38:41;;;;;;;0.65;0.47;;;;;;;;;;5075970;28;20208;-64
2022/09/21 14:41:08;;;;;;;0.55;0.55;;;;;;;;;;5076457;28;20212;-64
2022/09/21 14:43:36;;;;;;;2.83;0.63;;;;;;;;;;5076334;28;20212;-64
2022/09/21 14:46:15;;;;;;;0.40;0.40;;;;;;;;;;5075718;28;20284;-65
2022/09/21 14:48:49;;;;;;;0.60;0.60;;;;;;;;;;5075164;28;20243;-64
2022/09/21 14:51:20;;;;;;;1.40;0.40;;;;;;;;;;5072505;28;20520;-64
2022/09/21 14:53:58;;;;;;;1.20;0.50;;;;;;;;;;5076092;28;20239;-64
2022/09/21 14:56:30;;;;;;;0.68;0.60;;;;;;;;;;5075509;28;20220;-64
2022/09/21 14:59:03;;;;;;;1.98;0.35;;;;;;;;;;5075049;28;20215;-65
2022/09/21 15:01:36;;;;;;;0.50;0.50;;;;;;;;;;5075406;28;20555;-65
2022/09/21 15:04:15;;;;;;;0.40;0.40;;;;;;;;;;5075926;28;20486;-64